createdAt,value
2018-09-14T00:02:06.359Z,73.36
2018-09-14T00:05:30.868Z,73.50
2018-09-14T00:08:55.272Z,73.19
2018-09-14T00:12:19.665Z,73.55
2018-09-14T00:15:44.078Z,73.95
2018-09-14T00:19:08.472Z,73.51
2018-09-14T00:22:32.861Z,74.33
2018-09-14T00:25:57.259Z,74.15
2018-09-14T00:29:21.737Z,74.29
2018-09-14T00:32:46.168Z,74.78
2018-09-14T00:36:10.577Z,74.61
2018-09-14T00:39:35.010Z,74.71
2018-09-14T00:42:59.444Z,74.73
2018-09-14T00:46:23.897Z,74.42
2018-09-14T00:49:48.299Z,73.90
2018-09-14T00:53:12.725Z,74.55
2018-09-14T00:56:37.166Z,74.79
2018-09-14T01:00:01.574Z,75.12
2018-09-14T01:03:26.083Z,74.11
2018-09-14T01:06:50.566Z,75.05
2018-09-14T01:10:14.971Z,75.43
2018-09-14T01:13:39.395Z,75.19
2018-09-14T01:17:03.942Z,74.70
2018-09-14T01:20:28.363Z,75.45
2018-09-14T01:23:52.784Z,75.45
2018-09-14T01:27:17.228Z,75.25
2018-09-14T01:30:41.645Z,75.29
2018-09-14T01:34:06.162Z,75.67
2018-09-14T01:37:30.574Z,75.74
2018-09-14T01:40:55.022Z,74.84
2018-09-14T01:44:19.414Z,75.45
2018-09-14T01:47:43.857Z,75.76
2018-09-14T01:51:08.304Z,75.27
2018-09-14T01:54:32.717Z,75.32
2018-09-14T01:57:57.641Z,75.36
2018-09-14T02:01:22.143Z,75.81
2018-09-14T02:04:46.600Z,75.01
2018-09-14T02:08:11.011Z,75.62
2018-09-14T02:11:35.387Z,75.79
2018-09-14T02:14:59.825Z,75.53
2018-09-14T02:18:24.233Z,75.22
2018-09-14T02:21:48.651Z,76.31
2018-09-14T02:25:13.253Z,76.02
2018-09-14T02:28:37.642Z,75.93
2018-09-14T02:32:02.102Z,76.11
2018-09-14T02:35:26.514Z,76.87
2018-09-14T02:38:50.937Z,76.15
2018-09-14T02:42:15.361Z,75.74
2018-09-14T02:45:39.804Z,75.50
2018-09-14T02:49:04.210Z,75.48
2018-09-14T02:52:28.638Z,75.59
2018-09-14T02:55:53.107Z,75.63
2018-09-14T02:59:17.580Z,75.78
2018-09-14T03:02:41.981Z,76.30
2018-09-14T03:06:06.518Z,76.30
2018-09-14T03:09:30.953Z,76.50
2018-09-14T03:12:55.361Z,75.95
2018-09-14T03:16:19.756Z,76.11
2018-09-14T03:19:44.158Z,75.88
2018-09-14T03:23:08.587Z,75.92
2018-09-14T03:26:33.012Z,76.34
2018-09-14T03:29:57.439Z,76.40
2018-09-14T03:33:21.902Z,76.29
2018-09-14T03:36:46.322Z,76.84
2018-09-14T03:40:10.759Z,76.92
2018-09-14T03:43:41.513Z,77.01
2018-09-14T03:47:05.978Z,77.02
2018-09-14T03:50:30.390Z,76.65
2018-09-14T03:53:54.804Z,76.94
2018-09-14T03:57:19.462Z,76.51
2018-09-14T04:00:43.842Z,76.64
2018-09-14T04:04:08.394Z,77.18
2018-09-14T04:07:32.836Z,76.73
2018-09-14T04:10:57.282Z,76.90
2018-09-14T04:14:21.688Z,77.11
2018-09-14T04:17:46.124Z,77.00
2018-09-14T04:21:11.053Z,76.96
2018-09-14T04:24:35.529Z,77.05
2018-09-14T04:28:00.194Z,77.61
2018-09-14T04:31:24.712Z,76.96
2018-09-14T04:34:49.151Z,76.71
2018-09-14T04:38:13.566Z,77.53
2018-09-14T04:41:37.997Z,77.04
2018-09-14T04:45:03.189Z,77.46
2018-09-14T04:48:27.643Z,77.60
2018-09-14T04:51:52.032Z,76.92
2018-09-14T04:55:16.440Z,77.78
2018-09-14T04:58:40.931Z,77.72
2018-09-14T05:02:05.418Z,76.81
2018-09-14T05:05:29.837Z,77.85
2018-09-14T05:08:54.309Z,77.63
2018-09-14T05:12:18.725Z,77.09
2018-09-14T05:15:43.820Z,77.53
2018-09-14T05:19:08.284Z,77.11
2018-09-14T05:22:32.712Z,77.82
2018-09-14T05:25:57.102Z,78.30
2018-09-14T05:29:21.529Z,77.57
2018-09-14T05:32:45.989Z,77.08
2018-09-14T05:36:10.394Z,76.72
2018-09-14T05:39:34.801Z,77.06
2018-09-14T05:42:59.275Z,77.13
2018-09-14T05:46:23.766Z,77.45
2018-09-14T05:49:48.157Z,77.15
2018-09-14T05:53:12.589Z,77.55
2018-09-14T05:56:37.032Z,77.38
2018-09-14T06:00:01.528Z,77.35
2018-09-14T06:03:25.953Z,77.65
2018-09-14T06:06:50.388Z,77.47
2018-09-14T06:10:14.877Z,76.81
2018-09-14T06:13:39.511Z,78.67
2018-09-14T06:17:03.961Z,77.58
2018-09-14T06:20:29.332Z,77.68
2018-09-14T06:23:53.836Z,77.27
2018-09-14T06:27:18.337Z,76.20
2018-09-14T06:30:42.821Z,75.98
2018-09-14T06:34:07.288Z,76.41
2018-09-14T06:37:31.687Z,76.46
2018-09-14T06:40:56.133Z,76.92
2018-09-14T06:44:20.635Z,76.75
2018-09-14T06:47:45.116Z,76.47
2018-09-14T06:51:09.611Z,76.54
2018-09-14T06:54:34.088Z,76.59
2018-09-14T06:57:58.640Z,76.79
2018-09-14T07:01:23.101Z,75.85
2018-09-14T07:04:47.572Z,75.69
2018-09-14T07:08:11.967Z,75.57
2018-09-14T07:11:36.457Z,74.72
2018-09-14T07:15:00.903Z,74.95
2018-09-14T07:18:25.351Z,75.43
2018-09-14T07:21:50.813Z,75.51
2018-09-14T07:25:15.286Z,75.37
2018-09-14T07:28:39.736Z,75.04
2018-09-14T07:32:04.129Z,75.07
2018-09-14T07:35:28.612Z,75.61
2018-09-14T07:38:53.075Z,74.68
2018-09-14T07:42:17.567Z,74.25
2018-09-14T07:45:42.006Z,72.53
2018-09-14T07:49:06.515Z,74.29
2018-09-14T07:52:30.984Z,73.29
2018-09-14T07:55:55.462Z,72.46
2018-09-14T07:59:19.957Z,71.82
2018-09-14T08:02:44.492Z,71.09
2018-09-14T08:06:08.968Z,71.57
2018-09-14T08:09:33.403Z,71.05
2018-09-14T08:12:57.849Z,69.69
2018-09-14T08:16:22.290Z,70.48
2018-09-14T08:19:46.719Z,69.85
2018-09-14T08:23:11.178Z,69.84
2018-09-14T08:26:35.702Z,68.05
2018-09-14T08:30:00.292Z,66.94
2018-09-14T08:33:24.749Z,66.70
2018-09-14T08:36:49.254Z,65.77
2018-09-14T08:40:13.705Z,64.37
2018-09-14T08:43:38.134Z,64.04
2018-09-14T08:47:02.561Z,63.19
2018-09-14T08:50:26.985Z,62.35
2018-09-14T08:53:51.448Z,63.02
2018-09-14T08:57:15.866Z,61.42
2018-09-14T09:00:40.319Z,60.92
2018-09-14T09:04:04.769Z,60.00
2018-09-14T09:07:29.198Z,59.08
2018-09-14T09:10:53.640Z,58.24
2018-09-14T09:14:18.163Z,57.01
2018-09-14T09:17:49.244Z,55.45
2018-09-14T09:21:13.685Z,54.54
2018-09-14T09:24:38.090Z,55.11
2018-09-14T09:28:02.503Z,55.16
2018-09-14T09:31:26.965Z,53.19
2018-09-14T09:34:51.459Z,52.17
2018-09-14T09:38:15.962Z,49.78
2018-09-14T09:41:41.190Z,48.31
2018-09-14T09:45:05.772Z,46.88
2018-09-14T09:48:30.260Z,45.91
2018-09-14T09:51:54.812Z,47.95
2018-09-14T09:55:19.276Z,45.64
2018-09-14T09:58:43.783Z,41.55
2018-09-14T10:02:33.793Z,38.32
2018-09-14T10:06:03.322Z,35.01
2018-09-14T10:09:27.819Z,32.88
2018-09-14T10:12:52.256Z,31.16
2018-09-14T10:16:16.731Z,30.56
2018-09-14T10:19:41.221Z,30.73
2018-09-14T10:23:05.704Z,28.10
2018-09-14T10:26:30.140Z,26.93
2018-09-14T10:29:54.545Z,26.48
2018-09-14T10:33:18.999Z,26.84
2018-09-14T10:36:43.409Z,27.18
2018-09-14T10:40:07.857Z,26.65
2018-09-14T10:43:32.308Z,25.68
2018-09-14T10:46:56.710Z,27.62
2018-09-14T10:50:21.279Z,27.85
2018-09-14T10:53:45.696Z,26.78
2018-09-14T10:57:10.203Z,28.27
2018-09-14T11:00:35.020Z,31.12
2018-09-14T11:03:59.428Z,32.52
2018-09-14T11:07:23.844Z,34.42
2018-09-14T11:10:48.274Z,34.79
2018-09-14T11:14:13.050Z,35.66
2018-09-14T11:17:37.476Z,35.35
2018-09-14T11:21:01.889Z,30.81
2018-09-14T11:24:26.338Z,27.17
2018-09-14T11:27:50.772Z,24.99
2018-09-14T11:31:15.222Z,24.22
2018-09-14T11:34:39.682Z,23.39
2018-09-14T11:38:04.231Z,22.07
2018-09-14T11:41:28.612Z,22.50
2018-09-14T11:44:53.093Z,22.12
2018-09-14T11:48:17.523Z,21.72
2018-09-14T11:51:41.934Z,22.07
2018-09-14T11:55:06.389Z,22.19
2018-09-14T11:58:30.957Z,20.90
2018-09-14T12:01:55.392Z,23.42
2018-09-14T12:05:19.785Z,23.41
2018-09-14T12:08:44.239Z,21.31
2018-09-14T12:12:08.660Z,23.35
2018-09-14T12:15:33.130Z,20.49
2018-09-14T12:18:57.601Z,21.19
2018-09-14T12:22:22.099Z,26.96
2018-09-14T12:25:46.474Z,25.84
2018-09-14T12:29:10.897Z,22.09
2018-09-14T12:32:35.431Z,22.74
2018-09-14T12:35:59.873Z,23.93
2018-09-14T12:39:24.339Z,24.83
2018-09-14T12:42:48.781Z,24.07
2018-09-14T12:46:13.238Z,22.03
2018-09-14T12:49:37.728Z,20.83
2018-09-14T12:53:02.146Z,25.25
2018-09-14T12:56:26.589Z,23.32
2018-09-14T12:59:51.024Z,23.98
2018-09-14T13:03:15.462Z,23.92
2018-09-14T13:06:39.939Z,22.50
2018-09-14T13:10:04.454Z,22.72
2018-09-14T13:13:28.905Z,21.60
2018-09-14T13:16:53.483Z,20.87
2018-09-14T13:20:17.933Z,20.44
2018-09-14T13:23:42.432Z,17.94
2018-09-14T13:27:06.889Z,19.71
2018-09-14T13:30:31.837Z,19.51
2018-09-14T13:33:56.348Z,19.48
2018-09-14T13:37:21.109Z,17.68
2018-09-14T13:40:45.517Z,18.45
2018-09-14T13:44:09.891Z,17.89
2018-09-14T13:47:34.753Z,17.02
2018-09-14T13:50:59.203Z,16.49
2018-09-14T13:54:23.638Z,15.43
2018-09-14T13:57:48.923Z,15.17
2018-09-14T14:01:13.404Z,16.52
2018-09-14T14:04:37.880Z,16.21
2018-09-14T14:08:02.299Z,15.32
2018-09-14T14:11:26.735Z,15.40
2018-09-14T14:14:51.164Z,15.92
2018-09-14T14:22:27.492Z,16.37
2018-09-14T14:25:51.920Z,16.51
2018-09-14T14:29:16.348Z,17.63
2018-09-14T14:32:40.779Z,16.91
2018-09-14T14:36:05.253Z,16.19
2018-09-14T14:39:29.685Z,17.92
2018-09-14T14:42:54.076Z,16.27
2018-09-14T14:46:18.519Z,15.67
2018-09-14T14:49:42.944Z,17.27
2018-09-14T14:53:07.587Z,15.71
2018-09-14T14:56:32.004Z,17.27
2018-09-14T14:59:56.501Z,17.62
2018-09-14T15:03:20.943Z,18.56
2018-09-14T15:06:45.361Z,18.30
2018-09-14T15:10:09.794Z,17.49
2018-09-14T15:13:34.238Z,16.55
2018-09-14T15:16:58.650Z,17.38
2018-09-14T15:20:23.081Z,19.10
2018-09-14T15:23:47.529Z,19.55
2018-09-14T15:27:11.921Z,18.08
2018-09-14T15:30:36.478Z,19.08
2018-09-14T15:34:00.867Z,18.18
2018-09-14T15:37:25.867Z,18.18
2018-09-14T15:40:50.380Z,21.73
2018-09-14T15:44:14.959Z,25.02
2018-09-14T15:47:39.451Z,23.64
2018-09-14T15:51:04.024Z,25.58
2018-09-14T15:54:28.461Z,25.64
2018-09-14T15:57:53.100Z,26.15
2018-09-14T16:01:17.585Z,27.15
2018-09-14T16:04:42.074Z,26.58
2018-09-14T16:08:06.635Z,26.84
2018-09-14T16:11:31.037Z,27.67
2018-09-14T16:14:55.483Z,26.94
2018-09-14T16:18:19.904Z,27.98
2018-09-14T16:21:44.365Z,27.13
2018-09-14T16:25:09.217Z,27.33
2018-09-14T16:28:33.651Z,27.01
2018-09-14T16:31:58.098Z,27.08
2018-09-14T16:35:22.536Z,27.68
2018-09-14T16:38:46.975Z,27.10
2018-09-14T16:42:11.421Z,28.75
2018-09-14T16:45:35.922Z,28.54
2018-09-14T16:49:00.341Z,30.74
2018-09-14T16:52:24.809Z,29.80
2018-09-14T16:55:55.960Z,30.25
2018-09-14T16:59:20.354Z,31.11
2018-09-14T17:02:44.807Z,30.18
2018-09-14T17:06:09.196Z,31.25
2018-09-14T17:09:33.673Z,32.83
2018-09-14T17:12:58.094Z,31.93
2018-09-14T17:16:29.299Z,33.31
2018-09-14T17:19:53.761Z,33.64
2018-09-14T17:26:41.943Z,35.34
2018-09-14T17:30:06.778Z,36.01
2018-09-14T17:33:31.264Z,36.25
2018-09-14T17:36:55.714Z,36.42
2018-09-14T17:40:20.161Z,36.83
2018-09-14T17:43:44.563Z,40.15
2018-09-14T17:47:09.184Z,39.72
2018-09-14T17:50:33.673Z,39.48
2018-09-14T17:53:58.117Z,40.46
2018-09-14T17:57:22.676Z,41.20
2018-09-14T18:00:47.115Z,43.16
2018-09-14T18:04:11.875Z,43.13
2018-09-14T18:07:36.386Z,44.46
2018-09-14T18:11:01.115Z,44.91
2018-09-14T18:14:27.653Z,45.17
2018-09-14T18:17:52.191Z,46.69
2018-09-14T18:21:16.680Z,46.62
2018-09-14T18:24:41.106Z,47.41
2018-09-14T18:28:06.550Z,46.67
2018-09-14T18:31:31.103Z,49.15
2018-09-14T18:34:56.695Z,48.22
2018-09-14T18:38:21.209Z,48.89
2018-09-14T18:41:45.775Z,48.78
2018-09-14T18:45:10.538Z,49.74
2018-09-14T18:48:35.085Z,49.48
2018-09-14T18:51:59.933Z,49.90
2018-09-14T18:55:24.935Z,49.75
2018-09-14T18:58:49.872Z,49.80
2018-09-14T19:02:16.175Z,48.14
2018-09-14T19:05:41.918Z,48.69
2018-09-14T19:09:11.929Z,48.04
2018-09-14T19:12:37.414Z,49.44
2018-09-14T19:16:02.419Z,50.33
2018-09-14T19:19:27.701Z,50.28
2018-09-14T19:22:53.770Z,50.03
2018-09-14T19:26:19.844Z,50.71
2018-09-14T19:29:45.215Z,51.55
2018-09-14T19:33:10.740Z,51.29
2018-09-14T19:36:35.911Z,52.33
2018-09-14T19:40:00.937Z,52.27
2018-09-14T19:43:26.403Z,52.40
2018-09-14T19:46:52.660Z,52.60
2018-09-14T19:50:18.207Z,53.62
2018-09-14T19:53:44.240Z,53.77
2018-09-14T19:57:09.331Z,52.87
2018-09-14T20:00:34.292Z,52.33
2018-09-14T20:03:59.275Z,53.82
2018-09-14T20:07:24.378Z,53.66
2018-09-14T20:10:50.100Z,54.07
2018-09-14T20:14:15.713Z,54.38
2018-09-14T20:17:41.918Z,55.09
2018-09-14T20:21:06.698Z,54.66
2018-09-14T20:24:31.960Z,55.52
2018-09-14T20:27:57.317Z,57.10
2018-09-14T20:31:22.028Z,56.36
2018-09-14T20:34:47.229Z,56.36
2018-09-14T20:38:12.131Z,54.33
2018-09-14T20:41:37.561Z,54.45
2018-09-14T20:45:03.557Z,56.21
2018-09-14T20:48:29.601Z,55.91
2018-09-14T20:51:54.900Z,54.41
2018-09-14T20:55:20.483Z,54.25
2018-09-14T20:58:45.336Z,53.43
2018-09-14T21:02:09.949Z,51.46
2018-09-14T21:05:34.658Z,51.29
2018-09-14T21:08:59.179Z,50.26
2018-09-14T21:12:23.737Z,51.49
2018-09-14T21:15:48.134Z,51.22
2018-09-14T21:19:12.519Z,51.08
2018-09-14T21:22:38.043Z,50.03
2018-09-14T21:26:02.480Z,50.94
2018-09-14T21:29:26.885Z,49.64
2018-09-14T21:32:51.296Z,50.09
2018-09-14T21:36:15.739Z,49.87
2018-09-14T21:39:40.152Z,50.86
2018-09-14T21:43:04.561Z,51.60
2018-09-14T21:46:28.952Z,50.62
2018-09-14T21:49:53.392Z,51.34
2018-09-14T21:53:17.809Z,50.62
2018-09-14T21:56:42.239Z,51.16
2018-09-14T22:00:12.553Z,50.49
2018-09-14T22:03:36.973Z,50.10
2018-09-14T22:07:01.425Z,50.31
2018-09-14T22:10:25.834Z,52.13
2018-09-14T22:13:51.221Z,52.56
2018-09-14T22:17:15.661Z,53.45
2018-09-14T22:20:40.046Z,55.72
2018-09-14T22:24:04.459Z,54.97
2018-09-14T22:27:28.845Z,55.49
2018-09-14T22:30:53.247Z,56.35
2018-09-14T22:34:17.681Z,57.00
2018-09-14T22:37:42.115Z,57.07
2018-09-14T22:41:06.539Z,58.55
2018-09-14T22:44:31.008Z,58.68
2018-09-14T22:47:55.413Z,58.24
2018-09-14T22:51:19.871Z,59.09
2018-09-14T22:54:44.268Z,57.93
2018-09-14T22:58:08.744Z,59.61
2018-09-14T23:01:33.113Z,59.44
2018-09-14T23:04:57.538Z,59.85
2018-09-14T23:08:21.948Z,61.10
2018-09-14T23:11:46.423Z,60.78
2018-09-14T23:15:10.858Z,59.37
2018-09-14T23:18:35.345Z,58.82
2018-09-14T23:21:59.772Z,59.70
2018-09-14T23:25:24.159Z,60.03
2018-09-14T23:28:48.661Z,60.40
2018-09-14T23:32:13.039Z,61.25
2018-09-14T23:35:37.520Z,60.82
2018-09-14T23:39:01.889Z,59.70
2018-09-14T23:42:26.321Z,59.99
2018-09-14T23:45:50.728Z,59.55
2018-09-14T23:49:15.175Z,58.79
2018-09-14T23:52:39.616Z,56.83
2018-09-14T23:56:04.359Z,56.71
2018-09-14T23:59:28.798Z,57.17
